createdAt,value
2023-04-21T00:01:32.272Z,3.50
2023-04-21T00:05:14.152Z,3.10
2023-04-21T00:12:55.524Z,3.05
2023-04-21T00:16:37.422Z,3.85
2023-04-21T00:20:19.293Z,3.35
2023-04-21T00:24:01.076Z,4.05
2023-04-21T00:27:42.813Z,3.35
2023-04-21T00:31:24.644Z,3.33
2023-04-21T00:35:07.157Z,3.58
2023-04-21T00:38:48.888Z,3.88
2023-04-21T00:42:30.649Z,3.20
2023-04-21T00:46:12.407Z,3.42
2023-04-21T00:49:54.186Z,3.40
2023-04-21T00:53:36.157Z,4.20
2023-04-21T00:57:18.662Z,4.22
2023-04-21T01:01:00.661Z,4.38
2023-04-21T01:04:42.919Z,4.53
2023-04-21T01:08:24.735Z,4.70
2023-04-21T01:12:11.487Z,5.80
2023-04-21T01:15:53.287Z,5.32
2023-04-21T01:19:40.567Z,5.53
2023-04-21T01:27:04.325Z,5.45
2023-04-21T01:30:46.085Z,5.30
2023-04-21T01:34:27.824Z,5.95
2023-04-21T01:38:09.785Z,6.07
2023-04-21T01:41:51.513Z,6.55
2023-04-21T01:45:33.353Z,5.85
2023-04-21T01:49:15.186Z,6.95
2023-04-21T01:52:56.957Z,5.90
2023-04-21T01:56:38.928Z,6.93
2023-04-21T02:00:20.690Z,6.78
2023-04-21T02:04:04.456Z,6.53
2023-04-21T02:07:46.382Z,6.75
2023-04-21T02:11:28.224Z,6.65
2023-04-21T02:15:10.455Z,6.32
2023-04-21T02:19:03.233Z,7.18
2023-04-21T02:22:45.037Z,7.15
2023-04-21T02:26:26.943Z,7.97
2023-04-21T02:30:09.279Z,7.75
2023-04-21T02:33:51.046Z,7.10
2023-04-21T02:37:32.801Z,8.48
2023-04-21T02:41:14.567Z,8.23
2023-04-21T02:44:56.356Z,7.82
2023-04-21T02:48:38.131Z,8.27
2023-04-21T02:52:19.915Z,8.10
2023-04-21T02:56:04.561Z,8.52
2023-04-21T02:59:46.375Z,9.05
2023-04-21T03:03:28.314Z,8.82
2023-04-21T03:07:13.981Z,7.97
2023-04-21T03:10:56.744Z,8.93
2023-04-21T03:14:38.558Z,8.85
2023-04-21T03:18:20.275Z,8.43
2023-04-21T03:22:02.068Z,8.90
2023-04-21T03:25:43.881Z,8.30
2023-04-21T03:29:25.632Z,8.70
2023-04-21T03:33:07.370Z,9.68
2023-04-21T03:36:49.125Z,9.13
2023-04-21T03:40:30.963Z,8.55
2023-04-21T03:44:12.691Z,7.80
2023-04-21T03:47:55.903Z,8.95
2023-04-21T03:51:37.772Z,8.70
2023-04-21T03:55:19.528Z,8.02
2023-04-21T03:59:01.343Z,8.70
2023-04-21T04:02:43.831Z,9.25
2023-04-21T04:06:26.523Z,9.48
2023-04-21T04:10:08.363Z,9.90
2023-04-21T04:13:50.326Z,10.23
2023-04-21T04:17:32.560Z,9.15
2023-04-21T04:21:14.508Z,9.82
2023-04-21T04:24:57.335Z,10.40
2023-04-21T04:28:39.116Z,10.70
2023-04-21T04:32:21.849Z,9.07
2023-04-21T04:36:03.871Z,9.90
2023-04-21T04:39:45.696Z,10.18
2023-04-21T04:43:27.590Z,9.18
2023-04-21T04:47:09.366Z,10.32
2023-04-21T04:50:51.767Z,9.98
2023-04-21T04:54:33.630Z,10.55
2023-04-21T04:58:15.577Z,10.45
2023-04-21T05:01:57.570Z,10.45
2023-04-21T05:05:39.329Z,10.55
2023-04-21T05:09:21.119Z,11.43
2023-04-21T05:13:02.836Z,11.45
2023-04-21T05:16:44.640Z,11.93
2023-04-21T05:20:26.362Z,12.85
2023-04-21T05:24:08.242Z,12.85
2023-04-21T05:27:50.003Z,12.10
2023-04-21T05:31:33.023Z,11.95
2023-04-21T05:35:14.861Z,10.55
2023-04-21T05:38:56.630Z,10.82
2023-04-21T05:42:38.427Z,10.90
2023-04-21T05:46:20.166Z,11.32
2023-04-21T05:50:01.946Z,11.15
2023-04-21T05:53:45.443Z,10.60
2023-04-21T05:57:27.210Z,11.63
2023-04-21T06:01:09.161Z,10.77
2023-04-21T06:04:50.970Z,10.95
2023-04-21T06:08:33.208Z,11.43
2023-04-21T06:12:14.924Z,11.38
2023-04-21T06:15:56.879Z,11.10
2023-04-21T06:19:39.793Z,11.77
2023-04-21T06:23:22.948Z,11.10
2023-04-21T06:27:09.509Z,11.75
2023-04-21T06:30:51.252Z,10.35
2023-04-21T06:34:33.006Z,9.63
2023-04-21T06:38:14.717Z,10.07
2023-04-21T06:41:58.120Z,9.93
2023-04-21T06:45:39.980Z,10.00
2023-04-21T06:49:21.918Z,9.98
2023-04-21T06:53:03.837Z,10.13
2023-04-21T06:56:45.586Z,9.60
2023-04-21T07:00:27.401Z,10.35
2023-04-21T07:04:09.181Z,10.95
2023-04-21T07:07:51.626Z,9.68
2023-04-21T07:11:33.395Z,9.63
2023-04-21T07:15:15.267Z,9.20
2023-04-21T07:18:57.027Z,10.43
2023-04-21T07:22:38.935Z,9.43
2023-04-21T07:26:20.761Z,10.55
2023-04-21T07:30:05.425Z,11.30
2023-04-21T07:33:47.313Z,10.63
2023-04-21T07:37:29.420Z,9.43
2023-04-21T07:41:12.093Z,10.65
2023-04-21T07:44:55.952Z,9.38
2023-04-21T07:48:37.700Z,9.85
2023-04-21T07:52:19.473Z,11.18
2023-04-21T07:56:01.198Z,10.70
2023-04-21T07:59:43.382Z,11.43
2023-04-21T08:03:25.360Z,11.77
2023-04-21T08:07:07.509Z,11.10
2023-04-21T08:10:49.617Z,12.75
2023-04-21T08:14:32.360Z,12.77
2023-04-21T08:18:17.501Z,11.57
2023-04-21T08:22:00.517Z,11.50
2023-04-21T08:25:42.301Z,12.93
2023-04-21T08:29:24.083Z,12.82
2023-04-21T08:33:08.017Z,12.32
2023-04-21T08:36:49.876Z,12.50
2023-04-21T08:40:34.181Z,12.27
2023-04-21T08:44:15.935Z,11.35
2023-04-21T08:47:59.934Z,12.75
2023-04-21T08:51:42.307Z,12.32
2023-04-21T08:55:30.172Z,12.52
2023-04-21T08:59:11.940Z,13.02
2023-04-21T09:03:01.166Z,12.43
2023-04-21T09:06:46.111Z,13.15
2023-04-21T09:10:27.988Z,12.80
2023-04-21T09:14:11.475Z,12.15
2023-04-21T09:17:57.250Z,13.02
2023-04-21T09:21:43.732Z,12.40
2023-04-21T09:25:25.485Z,11.63
2023-04-21T09:29:08.819Z,12.70
2023-04-21T09:32:50.756Z,11.52
2023-04-21T09:36:32.563Z,12.52
2023-04-21T09:40:17.755Z,11.27
2023-04-21T09:44:04.327Z,11.32
2023-04-21T09:47:53.395Z,10.57
2023-04-21T09:55:26.934Z,10.95
2023-04-21T09:59:16.185Z,10.25
2023-04-21T10:03:00.905Z,10.10
2023-04-21T10:06:43.261Z,9.48
2023-04-21T10:10:31.790Z,9.52
2023-04-21T10:14:13.637Z,10.05
2023-04-21T10:18:17.323Z,8.57
2023-04-21T10:21:59.316Z,9.00
2023-04-21T10:25:41.138Z,8.95
2023-04-21T10:29:37.468Z,7.63
2023-04-21T10:33:30.100Z,10.13
2023-04-21T10:37:15.657Z,9.55
2023-04-21T10:41:28.267Z,9.50
2023-04-21T10:45:11.155Z,10.73
2023-04-21T10:48:53.156Z,9.80
2023-04-21T10:52:34.949Z,10.35
2023-04-21T10:56:17.469Z,8.98
2023-04-21T10:59:59.584Z,9.45
2023-04-21T11:03:41.588Z,7.82
2023-04-21T11:07:24.544Z,8.77
2023-04-21T11:11:06.444Z,8.80
2023-04-21T11:14:48.460Z,9.05
2023-04-21T11:18:40.517Z,9.05
2023-04-21T11:22:27.172Z,8.13
2023-04-21T11:26:08.996Z,7.80
2023-04-21T11:29:51.178Z,8.40
2023-04-21T11:33:37.695Z,8.45
2023-04-21T11:37:27.078Z,8.52
2023-04-21T11:41:10.558Z,8.15
2023-04-21T11:44:56.471Z,8.32
2023-04-21T11:48:38.660Z,8.55
2023-04-21T11:52:24.596Z,9.07
2023-04-21T11:56:06.709Z,7.72
2023-04-21T11:59:50.691Z,8.32
2023-04-21T12:03:34.756Z,8.40
2023-04-21T12:07:22.945Z,7.93
2023-04-21T12:11:04.825Z,7.95
2023-04-21T12:14:46.722Z,7.70
2023-04-21T12:18:28.552Z,7.90
2023-04-21T12:22:14.034Z,6.20
2023-04-21T12:25:55.817Z,6.68
2023-04-21T12:29:38.695Z,7.13
2023-04-21T12:33:20.732Z,6.90
2023-04-21T12:37:03.325Z,7.38
2023-04-21T12:40:45.162Z,6.43
2023-04-21T12:44:26.899Z,5.72
2023-04-21T12:48:08.796Z,7.22
2023-04-21T12:51:50.559Z,6.53
2023-04-21T12:55:34.349Z,7.05
2023-04-21T12:59:16.223Z,6.50
2023-04-21T13:02:58.250Z,6.80
2023-04-21T13:06:40.583Z,6.75
2023-04-21T13:10:22.497Z,6.97
2023-04-21T13:14:04.394Z,6.65
2023-04-21T13:17:46.219Z,6.93
2023-04-21T13:21:28.058Z,6.72
2023-04-21T13:25:09.965Z,6.68
2023-04-21T13:28:51.775Z,6.28
2023-04-21T13:32:33.753Z,6.28
2023-04-21T13:36:15.540Z,6.72
2023-04-21T13:39:57.299Z,5.70
2023-04-21T13:43:39.271Z,5.57
2023-04-21T13:47:21.088Z,5.35
2023-04-21T13:51:02.913Z,5.32
2023-04-21T13:54:44.780Z,4.80
2023-04-21T13:58:26.780Z,4.80
2023-04-21T14:02:10.884Z,5.20
2023-04-21T14:05:52.847Z,4.60
2023-04-21T14:09:35.303Z,5.00
2023-04-21T14:13:33.162Z,4.40
2023-04-21T14:17:17.081Z,4.93
2023-04-21T14:20:58.827Z,4.43
2023-04-21T14:24:40.916Z,4.03
2023-04-21T14:28:22.735Z,4.05
2023-04-21T14:32:04.605Z,4.45
2023-04-21T14:35:46.477Z,3.92
2023-04-21T14:39:28.322Z,3.72
2023-04-21T14:43:11.422Z,4.07
2023-04-21T14:47:05.660Z,3.60
2023-04-21T14:50:51.352Z,3.85
2023-04-21T14:54:33.140Z,3.65
2023-04-21T14:58:14.937Z,3.90
2023-04-21T15:01:56.785Z,3.85
2023-04-21T15:05:38.786Z,4.35
2023-04-21T15:09:20.833Z,4.30
2023-04-21T15:13:02.756Z,3.65
2023-04-21T15:16:44.550Z,4.45
2023-04-21T15:20:40.577Z,3.95
2023-04-21T15:24:25.463Z,4.25
2023-04-21T15:28:07.597Z,4.05
2023-04-21T15:31:49.437Z,4.00
2023-04-21T15:35:31.312Z,3.63
2023-04-21T15:39:14.183Z,4.05
2023-04-21T15:42:56.145Z,3.97
2023-04-21T15:46:38.024Z,4.47
2023-04-21T15:50:19.901Z,4.32
2023-04-21T15:54:01.722Z,4.78
2023-04-21T15:57:44.090Z,4.88
2023-04-21T16:01:25.878Z,4.88
2023-04-21T16:05:08.131Z,4.80
2023-04-21T16:08:50.172Z,5.32
2023-04-21T16:12:31.931Z,4.75
2023-04-21T16:16:13.956Z,4.68
2023-04-21T16:19:55.754Z,4.70
2023-04-21T16:23:38.062Z,4.57
2023-04-21T16:27:19.830Z,4.95
2023-04-21T16:31:01.667Z,4.85
2023-04-21T16:34:43.545Z,4.88
2023-04-21T16:38:25.518Z,4.85
2023-04-21T16:42:07.240Z,4.22
2023-04-21T16:45:49.173Z,4.60
2023-04-21T16:49:30.914Z,4.35
2023-04-21T16:53:12.751Z,5.15
2023-04-21T16:56:54.768Z,4.30
2023-04-21T17:00:38.086Z,3.08
2023-04-21T17:04:20.027Z,3.03
2023-04-21T17:08:01.791Z,3.10
2023-04-21T17:11:43.975Z,3.15
2023-04-21T17:15:25.954Z,3.22
2023-04-21T17:19:07.829Z,3.25
2023-04-21T17:22:49.597Z,3.10
2023-04-21T17:26:31.373Z,3.55
2023-04-21T17:30:13.370Z,3.83
2023-04-21T17:33:57.137Z,3.88
2023-04-21T17:37:38.910Z,3.63
2023-04-21T17:41:21.253Z,2.90
2023-04-21T17:45:05.445Z,3.17
2023-04-21T17:48:48.329Z,3.88
2023-04-21T17:52:30.470Z,4.15
2023-04-21T17:56:14.287Z,3.92
2023-04-21T17:59:56.322Z,4.03
2023-04-21T18:03:41.343Z,4.45
2023-04-21T18:07:23.279Z,4.00
2023-04-21T18:11:06.214Z,4.22
2023-04-21T18:14:48.143Z,4.50
2023-04-21T18:18:29.849Z,4.07
2023-04-21T18:22:12.100Z,4.25
2023-04-21T18:25:53.875Z,4.35
2023-04-21T18:29:35.688Z,4.25
2023-04-21T18:33:18.706Z,4.47
2023-04-21T18:37:00.527Z,4.00
2023-04-21T18:40:42.358Z,4.38
2023-04-21T18:44:24.176Z,4.30
2023-04-21T18:48:06.223Z,4.30
2023-04-21T18:51:48.203Z,4.15
2023-04-21T18:55:30.616Z,4.90
2023-04-21T18:59:12.442Z,4.82
2023-04-21T19:02:54.529Z,5.78
2023-04-21T19:06:36.591Z,4.18
2023-04-21T19:10:18.655Z,4.85
2023-04-21T19:14:00.408Z,4.80
2023-04-21T19:17:42.223Z,4.20
2023-04-21T19:21:24.013Z,4.78
2023-04-21T19:25:07.104Z,4.25
2023-04-21T19:28:49.257Z,4.68
2023-04-21T19:32:31.230Z,4.70
2023-04-21T19:36:13.731Z,6.82
2023-04-21T19:39:55.992Z,8.43
2023-04-21T19:43:37.856Z,9.10
2023-04-21T19:47:19.762Z,9.63
2023-04-21T19:51:01.641Z,7.55
2023-04-21T19:54:43.367Z,5.25
2023-04-21T19:58:39.522Z,5.75
2023-04-21T20:06:04.933Z,4.63
2023-04-21T20:09:46.730Z,4.63
2023-04-21T20:13:28.539Z,5.00
2023-04-21T20:17:10.532Z,4.72
2023-04-21T20:20:52.305Z,4.93
2023-04-21T20:24:34.691Z,5.32
2023-04-21T20:28:16.629Z,5.38
2023-04-21T20:31:58.623Z,5.25
2023-04-21T20:35:43.898Z,6.38
2023-04-21T20:39:25.804Z,5.00
2023-04-21T20:43:07.714Z,6.28
2023-04-21T20:46:49.541Z,5.47
2023-04-21T20:50:31.489Z,6.07
2023-04-21T20:54:13.256Z,5.53
2023-04-21T20:57:55.004Z,6.25
2023-04-21T21:01:39.909Z,5.60
2023-04-21T21:05:22.495Z,6.45
2023-04-21T21:09:04.806Z,6.63
2023-04-21T21:12:46.526Z,5.18
2023-04-21T21:16:28.317Z,5.70
2023-04-21T21:20:10.679Z,5.60
2023-04-21T21:23:52.413Z,5.60
2023-04-21T21:27:34.219Z,5.38
2023-04-21T21:31:16.020Z,5.82
2023-04-21T21:34:57.772Z,6.10
2023-04-21T21:38:39.873Z,6.75
2023-04-21T21:42:22.524Z,6.40
2023-04-21T21:46:05.988Z,7.00
2023-04-21T21:49:48.082Z,7.07
2023-04-21T21:53:29.917Z,7.18
2023-04-21T21:57:11.918Z,7.10
2023-04-21T22:00:53.714Z,7.53
2023-04-21T22:04:35.925Z,5.97
2023-04-21T22:08:17.689Z,6.90
2023-04-21T22:11:59.638Z,6.70
2023-04-21T22:15:41.424Z,5.93
2023-04-21T22:19:23.467Z,6.07
2023-04-21T22:23:05.237Z,5.72
2023-04-21T22:26:47.655Z,5.78
2023-04-21T22:30:29.491Z,6.95
2023-04-21T22:34:14.931Z,5.43
2023-04-21T22:37:56.775Z,5.22
2023-04-21T22:41:39.002Z,5.57
2023-04-21T22:45:21.548Z,6.40
2023-04-21T22:49:03.939Z,6.03
2023-04-21T22:52:46.001Z,6.10
2023-04-21T22:56:29.461Z,5.35
2023-04-21T23:00:11.502Z,5.03
2023-04-21T23:03:53.485Z,5.30
2023-04-21T23:07:36.615Z,4.55
2023-04-21T23:11:18.397Z,5.28
2023-04-21T23:15:00.302Z,5.65
2023-04-21T23:18:42.025Z,5.30
2023-04-21T23:22:26.040Z,5.93
2023-04-21T23:26:08.018Z,5.68
2023-04-21T23:29:49.738Z,5.55
2023-04-21T23:33:31.564Z,5.65
2023-04-21T23:37:13.341Z,6.20
2023-04-21T23:40:55.253Z,5.40
2023-04-21T23:44:37.553Z,5.70
2023-04-21T23:48:19.315Z,6.25
2023-04-21T23:52:01.266Z,5.93
2023-04-21T23:55:43.255Z,5.40
2023-04-21T23:59:25.080Z,5.78
